Time;durP1;ratioP1;P1;durP2;ratioP2;P2;SDS_P1;SDS_P2;PMS_P1;PMS_P2;Temp;Humidity;BMP_temperature;BMP_pressure;BME280_temperature;BME280_humidity;BME280_pressure;Samples;Min_cycle;Max_cycle;Signal;HPM_P1;HPM_P2
2023/03/24 00:04:43;;;;;;;1.63;1.10;;;;;;;12.22;80.52;99047.09;10546296;28;20043;-74
2023/03/24 00:09:45;;;;;;;1.27;1.02;;;;;;;12.06;81.75;99045.31;10529325;28;20043;-74
2023/03/24 00:14:47;;;;;;;1.00;0.90;;;;;;;12.07;81.99;99033.84;10528445;28;20136;-73
2023/03/24 00:19:49;;;;;;;1.45;1.00;;;;;;;12.07;81.91;99020.66;10545973;28;20489;-75
2023/03/24 00:24:50;;;;;;;2.80;1.23;;;;;;;12.04;82.07;99019.97;10527875;28;20413;-73
2023/03/24 00:29:52;;;;;;;1.08;0.82;;;;;;;12.00;82.35;99019.31;10527827;28;20044;-74
2023/03/24 00:34:54;;;;;;;1.10;0.93;;;;;;;12.00;83.02;99007.94;10527089;28;20048;-73
2023/03/24 00:39:56;;;;;;;1.63;0.90;;;;;;;11.99;83.99;99012.31;10546082;28;20063;-74
2023/03/24 00:44:57;;;;;;;1.65;1.20;;;;;;;11.85;84.57;99014.84;10527181;28;20075;-74
2023/03/24 00:50:00;;;;;;;1.10;1.00;;;;;;;11.78;85.16;99001.13;10526734;28;20066;-74
2023/03/24 00:55:05;;;;;;;1.88;1.20;;;;;;;11.75;85.61;98993.41;10527337;28;20040;-73
2023/03/24 01:00:13;;;;;;;1.35;1.08;;;;;;;11.72;85.84;98995.34;10544397;28;20047;-73
2023/03/24 01:05:16;;;;;;;1.30;1.05;;;;;;;11.64;86.46;98987.84;10544223;28;20093;-73
2023/03/24 01:10:25;;;;;;;2.05;1.20;;;;;;;11.55;86.98;98978.69;10525833;28;20443;-73
2023/03/24 01:15:32;;;;;;;1.00;0.90;;;;;;;11.53;87.22;98971.78;10525980;28;20052;-73
2023/03/24 01:20:35;;;;;;;1.88;1.50;;;;;;;11.58;87.79;98967.13;10523913;28;20093;-73
2023/03/24 01:25:37;;;;;;;2.00;1.20;;;;;;;11.43;88.50;98966.16;10543624;28;20047;-73
2023/03/24 01:30:39;;;;;;;2.30;1.20;;;;;;;11.54;89.01;98953.25;10543752;28;20047;-74
2023/03/24 01:35:41;;;;;;;1.50;1.10;;;;;;;11.54;89.14;98955.88;10525282;28;20062;-75
2023/03/24 01:40:45;;;;;;;1.95;1.52;;;;;;;11.54;89.92;98952.41;10543032;28;20161;-74
2023/03/24 01:45:57;;;;;;;3.03;1.73;;;;;;;11.48;90.75;98955.38;10523756;28;20135;-73
2023/03/24 01:51:10;;;;;;;1.60;1.20;;;;;;;11.45;90.97;98945.84;10523883;28;20044;-74
2023/03/24 01:56:12;;;;;;;4.00;1.73;;;;;;;11.39;91.45;98932.19;10506875;28;20071;-74
2023/03/24 02:01:17;;;;;;;2.17;1.20;;;;;;;11.40;92.29;98936.50;10523489;28;20114;-73
2023/03/24 02:06:58;;;;;;;2.50;1.50;;;;;;;11.43;92.24;98939.00;10525564;28;20147;-74
2023/03/24 02:12:01;;;;;;;3.30;1.80;;;;;;;11.52;93.77;98933.25;10523011;28;20078;-74
2023/03/24 02:17:17;;;;;;;1.92;1.17;;;;;;;11.33;95.55;98936.84;10522852;28;20047;-74
2023/03/24 02:22:38;;;;;;;2.03;1.70;;;;;;;11.26;97.70;98927.56;10523110;28;20044;-74
2023/03/24 02:28:09;;;;;;;2.60;2.05;;;;;;;11.27;98.76;98925.78;10522773;28;20139;-73
2023/03/24 02:33:47;;;;;;;2.97;1.83;;;;;;;11.50;99.20;98924.56;10522447;28;20567;-74
2023/03/24 02:39:26;;;;;;;1.85;1.65;;;;;;;11.54;98.55;98911.16;10523239;28;20514;-74
2023/03/24 02:45:10;;;;;;;2.70;1.75;;;;;;;11.63;97.30;98902.75;10522811;28;20505;-73
2023/03/24 02:50:28;;;;;;;2.63;1.58;;;;;;;11.70;96.72;98899.81;10477184;28;20068;-73
2023/03/24 02:55:35;;;;;;;1.35;1.25;;;;;;;11.78;95.72;98894.97;10523184;28;20075;-74
2023/03/24 03:00:45;;;;;;;2.50;1.73;;;;;;;11.80;95.39;98893.09;10522228;28;20497;-74
2023/03/24 03:06:30;;;;;;;4.05;2.40;;;;;;;11.75;95.67;98884.63;10454214;28;20128;-73
2023/03/24 03:11:32;;;;;;;2.50;2.30;;;;;;;11.84;94.74;98884.97;10436543;28;20103;-74
2023/03/24 03:16:39;;;;;;;3.38;2.55;;;;;;;11.93;94.67;98891.53;10453130;28;20092;-74
2023/03/24 03:21:43;;;;;;;4.28;2.40;;;;;;;11.96;94.42;98898.41;10435827;28;20045;-74
2023/03/24 03:26:47;;;;;;;2.20;1.88;;;;;;;12.03;94.79;98897.97;10452455;28;20048;-74
2023/03/24 03:32:06;;;;;;;2.35;2.13;;;;;;;12.22;94.11;98887.28;10452052;28;20075;-73
2023/03/24 03:37:17;;;;;;;2.38;1.60;;;;;;;12.12;97.03;98878.16;10500437;28;20058;-73
2023/03/24 03:42:19;;;;;;;2.00;1.60;;;;;;;12.14;97.82;98864.94;10544286;28;20085;-72
2023/03/24 03:47:21;;;;;;;2.20;1.55;;;;;;;12.23;97.46;98849.44;10529044;28;20051;-73
2023/03/24 03:52:24;;;;;;;1.92;1.70;;;;;;;12.06;99.23;98853.03;10530089;28;20113;-73
2023/03/24 03:57:26;;;;;;;2.45;1.52;;;;;;;12.00;100.00;98853.38;10529132;28;20044;-72
2023/03/24 04:03:04;;;;;;;2.33;1.80;;;;;;;11.96;100.00;98841.31;10528148;28;20521;-75
2023/03/24 04:08:07;;;;;;;3.67;1.58;;;;;;;11.89;100.00;98842.59;10523988;22;20047;-71
2023/03/24 04:14:17;;;;;;;2.15;1.67;;;;;;;11.70;100.00;98847.16;10502663;28;20064;-72
2023/03/24 04:19:56;;;;;;;2.33;1.70;;;;;;;11.54;100.00;98844.50;10457612;28;20040;-72
2023/03/24 04:25:06;;;;;;;1.80;1.67;;;;;;;11.51;100.00;98840.28;10467954;28;20041;-72
2023/03/24 04:30:29;;;;;;;2.47;2.08;;;;;;;11.52;100.00;98836.72;10484227;28;20409;-73
2023/03/24 04:35:45;;;;;;;3.03;2.45;;;;;;;11.53;100.00;98848.94;10483844;28;20048;-72
2023/03/24 04:40:55;;;;;;;2.42;2.22;;;;;;;11.52;100.00;98831.44;10485977;28;20418;-72
2023/03/24 04:45:57;;;;;;;4.85;2.75;;;;;;;11.62;100.00;98823.88;10483630;28;20048;-73
2023/03/24 04:51:17;;;;;;;5.30;2.90;;;;;;;11.50;100.00;98816.66;10482242;28;20135;-72
2023/03/24 04:56:51;;;;;;;3.30;2.70;;;;;;;11.39;100.00;98800.63;10483550;28;20044;-72
2023/03/24 05:02:31;;;;;;;2.95;2.45;;;;;;;11.36;100.00;98805.09;10491756;28;20040;-72
2023/03/24 05:07:39;;;;;;;3.92;2.58;;;;;;;11.47;100.00;98799.28;10501191;28;20086;-71
2023/03/24 05:12:45;;;;;;;2.95;2.22;;;;;;;11.51;100.00;98789.41;10482123;28;20051;-72
2023/03/24 05:18:09;;;;;;;2.00;1.70;;;;;;;11.67;100.00;98785.00;10499988;28;20048;-72
2023/03/24 05:23:11;;;;;;;1.80;1.70;;;;;;;11.80;100.00;98778.09;10482082;28;20132;-72
2023/03/24 05:28:15;;;;;;;2.88;1.60;;;;;;;12.14;100.00;98773.56;10482915;28;20056;-72
2023/03/24 05:33:18;;;;;;;1.88;1.63;;;;;;;12.09;100.00;98773.84;10465012;28;20041;-72
2023/03/24 05:38:21;;;;;;;2.25;1.80;;;;;;;12.29;100.00;98763.91;10499806;28;20043;-73
2023/03/24 05:43:27;;;;;;;2.90;2.00;;;;;;;12.27;100.00;98758.75;10481174;28;20037;-73
2023/03/24 05:48:41;;;;;;;1.85;1.73;;;;;;;12.37;99.02;98751.16;10482421;28;20063;-73
2023/03/24 05:53:50;;;;;;;6.97;2.05;;;;;;;12.32;99.22;98743.50;10481131;28;20044;-74
2023/03/24 05:58:57;;;;;;;2.63;2.13;;;;;;;12.16;100.00;98737.44;10481058;28;20096;-73
2023/03/24 06:04:10;;;;;;;2.28;2.00;;;;;;;12.08;100.00;98734.41;10480812;28;20044;-72
2023/03/24 06:09:14;;;;;;;2.05;1.80;;;;;;;12.08;100.00;98726.50;10481828;28;20421;-72
2023/03/24 06:14:16;;;;;;;1.73;1.40;;;;;;;12.10;99.85;98722.84;10480362;28;20135;-71
2023/03/24 06:19:32;;;;;;;2.42;1.80;;;;;;;12.53;93.34;98722.94;10480581;28;20041;-72
2023/03/24 06:24:55;;;;;;;2.00;1.50;;;;;;;12.70;92.63;98710.50;10480121;28;20090;-71
2023/03/24 06:29:58;;;;;;;1.90;1.70;;;;;;;12.72;92.62;98712.09;10498769;28;20041;-71
2023/03/24 06:34:59;;;;;;;2.42;1.90;;;;;;;12.95;89.51;98699.28;10497837;28;20040;-71
2023/03/24 06:40:12;;;;;;;3.95;1.88;;;;;;;13.04;89.51;98703.97;10479842;28;20048;-72
2023/03/24 06:45:21;;;;;;;2.40;1.75;;;;;;;13.29;87.52;98695.41;10479275;28;20071;-72
2023/03/24 06:50:26;;;;;;;3.78;1.80;;;;;;;13.36;85.79;98704.59;10463203;28;20040;-72
2023/03/24 06:55:29;;;;;;;2.95;1.88;;;;;;;13.57;83.67;98700.56;10479688;28;20051;-72
2023/03/24 07:00:31;;;;;;;2.38;1.80;;;;;;;13.57;84.63;98700.56;10479067;28;20105;-72
2023/03/24 07:05:54;;;;;;;3.97;1.80;;;;;;;13.53;86.51;98701.72;10496928;28;20425;-72
2023/03/24 07:10:56;;;;;;;2.03;1.52;;;;;;;13.83;82.08;98698.00;10479326;28;20131;-72
2023/03/24 07:15:58;;;;;;;2.58;1.42;;;;;;;13.87;82.77;98696.88;10482915;28;20098;-72
2023/03/24 07:21:00;;;;;;;2.15;1.75;;;;;;;13.78;83.22;98697.47;10505970;28;20040;-72
2023/03/24 07:26:03;;;;;;;3.33;1.55;;;;;;;13.86;82.22;98703.09;10487717;28;20040;-72
2023/03/24 07:31:28;;;;;;;2.38;1.58;;;;;;;14.03;81.96;98700.19;10458624;28;20045;-72
2023/03/24 07:36:34;;;;;;;1.50;1.40;;;;;;;14.41;78.08;98699.38;10488439;28;20448;-73
2023/03/24 07:41:38;;;;;;;1.85;1.50;;;;;;;14.47;77.30;98688.34;10486336;28;20040;-73
2023/03/24 07:46:48;;;;;;;1.70;1.52;;;;;;;14.61;76.93;98685.66;10504564;28;20428;-73
2023/03/24 07:51:50;;;;;;;2.05;1.50;;;;;;;14.69;76.77;98694.84;10504184;28;20036;-72
2023/03/24 07:57:00;;;;;;;3.85;1.50;;;;;;;14.88;73.85;98687.31;10485501;28;20053;-72
2023/03/24 08:02:02;;;;;;;2.10;1.58;;;;;;;14.80;77.29;98694.94;10486102;28;20040;-72
2023/03/24 08:07:23;;;;;;;3.38;1.90;;;;;;;15.13;72.03;98697.81;10485547;28;20048;-72
2023/03/24 08:12:25;;;;;;;5.20;2.38;;;;;;;15.32;71.24;98702.66;10503457;28;20485;-72
2023/03/24 08:17:27;;;;;;;2.35;1.95;;;;;;;15.29;70.19;98694.09;10484435;28;20509;-73
2023/03/24 08:22:29;;;;;;;3.35;1.90;;;;;;;15.45;71.14;98707.91;10503656;28;20043;-72
2023/03/24 08:27:31;;;;;;;1.83;1.50;;;;;;;15.40;71.81;98696.78;10484066;28;20048;-72
2023/03/24 08:32:33;;;;;;;3.83;1.55;;;;;;;15.50;71.06;98699.63;10502172;28;20047;-73
2023/03/24 08:37:36;;;;;;;2.00;1.20;;;;;;;15.98;66.09;98691.66;10501919;28;20052;-73
2023/03/24 08:42:38;;;;;;;1.30;1.17;;;;;;;16.21;65.83;98704.03;10503246;28;20072;-73
2023/03/24 08:47:40;;;;;;;1.75;1.30;;;;;;;16.31;63.36;98712.13;10502008;28;20044;-72
2023/03/24 08:52:42;;;;;;;2.83;1.33;;;;;;;16.07;64.01;98702.44;10501576;28;20044;-73
2023/03/24 08:57:44;;;;;;;3.38;1.40;;;;;;;15.95;66.73;98690.09;10501415;28;20128;-73
2023/03/24 09:02:48;;;;;;;1.40;1.30;;;;;;;16.06;64.72;98694.56;10501601;28;20063;-73
2023/03/24 09:07:50;;;;;;;1.60;1.40;;;;;;;15.96;69.06;98694.44;10501192;28;20040;-73
2023/03/24 09:12:52;;;;;;;2.38;1.38;;;;;;;16.13;66.75;98699.31;10500789;28;20044;-73
2023/03/24 09:17:53;;;;;;;3.35;1.83;;;;;;;16.36;65.37;98694.06;10501269;28;20080;-72
2023/03/24 09:22:55;;;;;;;2.08;1.27;;;;;;;16.69;63.34;98692.38;10500094;28;20119;-73
2023/03/24 09:27:57;;;;;;;2.85;1.48;;;;;;;16.89;62.95;98700.53;10502675;28;20060;-73
2023/03/24 09:32:59;;;;;;;1.50;1.13;;;;;;;16.90;60.64;98711.97;10500570;28;20040;-72
2023/03/24 09:38:00;;;;;;;1.55;1.45;;;;;;;16.87;60.84;98702.47;10498807;28;20045;-72
2023/03/24 09:43:07;;;;;;;1.35;1.00;;;;;;;16.68;60.47;98717.25;10464721;28;20055;-74
2023/03/24 09:48:25;;;;;;;1.38;1.27;;;;;;;16.61;60.66;98720.38;10501576;28;20105;-74
2023/03/24 09:53:42;;;;;;;1.25;0.90;;;;;;;16.75;60.32;98710.53;10499790;28;20055;-74
2023/03/24 09:58:50;;;;;;;2.25;0.85;;;;;;;16.94;60.11;98704.63;10481496;28;20045;-73
2023/03/24 10:03:58;;;;;;;1.90;1.02;;;;;;;17.27;58.56;98711.72;10498828;28;20037;-74
2023/03/24 10:09:30;;;;;;;2.67;0.90;;;;;;;17.44;56.56;98707.69;10512887;22;20049;-73
2023/03/24 10:14:54;;;;;;;0.77;0.50;;;;;;;17.29;54.85;98705.31;10347852;28;20117;-73
2023/03/24 10:20:08;;;;;;;0.75;0.70;;;;;;;17.14;54.53;98710.03;10332450;28;20412;-72
2023/03/24 10:25:20;;;;;;;0.98;0.80;;;;;;;17.03;55.29;98711.84;10332592;28;20403;-72
2023/03/24 10:30:29;;;;;;;4.72;0.60;;;;;;;17.08;55.84;98701.72;10315970;28;20054;-73
2023/03/24 10:35:38;;;;;;;0.55;0.50;;;;;;;17.26;54.45;98710.84;10331715;28;20047;-72
2023/03/24 10:40:40;;;;;;;1.38;0.63;;;;;;;17.16;55.90;98712.56;10314773;28;20508;-72
2023/03/24 10:45:45;;;;;;;1.00;0.43;;;;;;;17.43;53.98;98698.88;10314569;28;20054;-74
2023/03/24 10:50:48;;;;;;;0.63;0.40;;;;;;;17.72;53.44;98700.97;10426489;28;20103;-73
2023/03/24 10:55:50;;;;;;;1.00;0.30;;;;;;;18.08;52.63;98708.59;10467542;28;20045;-72
2023/03/24 11:00:53;;;;;;;0.60;0.40;;;;;;;18.28;52.17;98708.72;10466517;28;20044;-73
2023/03/24 11:06:00;;;;;;;1.23;0.45;;;;;;;17.98;52.03;98723.63;10448808;28;20048;-73
2023/03/24 11:11:28;;;;;;;2.05;0.30;;;;;;;17.68;52.89;98731.44;10447743;28;20044;-73
2023/03/24 11:16:35;;;;;;;0.65;0.50;;;;;;;17.56;53.92;98739.41;10465446;28;20055;-73
2023/03/24 11:21:38;;;;;;;1.23;0.50;;;;;;;17.15;55.79;98751.56;10466001;28;20048;-72
2023/03/24 11:27:13;;;;;;;1.30;0.40;;;;;;;17.22;57.73;98740.44;10464904;28;20087;-73
2023/03/24 11:32:21;;;;;;;0.90;0.60;;;;;;;17.45;56.33;98747.44;10378279;28;20423;-73
2023/03/24 11:37:33;;;;;;;0.93;0.40;;;;;;;17.39;56.82;98740.78;10379491;28;20060;-73
2023/03/24 11:42:42;;;;;;;1.33;0.57;;;;;;;17.54;56.69;98744.03;10379028;28;20555;-73
2023/03/24 11:47:47;;;;;;;2.10;0.50;;;;;;;17.57;55.99;98741.09;10378835;28;20064;-73
2023/03/24 11:53:01;;;;;;;1.08;0.50;;;;;;;17.41;55.50;98745.97;10377504;28;20081;-72
2023/03/24 11:58:10;;;;;;;0.50;0.32;;;;;;;17.28;57.10;98737.31;10377204;28;20133;-73
2023/03/24 12:03:14;;;;;;;0.43;0.38;;;;;;;17.38;56.54;98722.31;10376971;28;20116;-73
2023/03/24 12:08:29;;;;;;;0.30;0.30;;;;;;;17.65;55.52;98708.59;10435690;28;20057;-74
2023/03/24 12:13:37;;;;;;;0.30;0.30;;;;;;;17.68;55.32;98702.19;10445552;28;20037;-73
2023/03/24 12:18:49;;;;;;;1.02;0.40;;;;;;;17.88;54.83;98685.47;10463114;28;20041;-73
2023/03/24 12:24:01;;;;;;;2.15;0.50;;;;;;;18.25;53.59;98693.88;10462928;28;20048;-74
2023/03/24 12:29:23;;;;;;;0.45;0.38;;;;;;;18.03;54.10;98699.31;10463601;28;20045;-73
2023/03/24 12:35:01;;;;;;;0.50;0.40;;;;;;;17.59;53.86;98703.78;10444664;28;20044;-73
2023/03/24 12:40:15;;;;;;;1.75;0.57;;;;;;;17.39;55.05;98700.09;10295453;28;20505;-73
2023/03/24 12:45:29;;;;;;;0.55;0.30;;;;;;;17.24;56.89;98704.00;10279796;28;20054;-73
2023/03/24 12:50:31;;;;;;;1.10;0.40;;;;;;;17.11;56.27;98715.59;10297330;28;20054;-72
2023/03/24 12:55:47;;;;;;;0.30;0.30;;;;;;;17.19;56.81;98692.91;10296249;28;20133;-73
2023/03/24 13:00:57;;;;;;;1.00;0.40;;;;;;;17.18;57.29;98680.56;10278471;28;20053;-74
2023/03/24 13:06:16;;;;;;;0.77;0.50;;;;;;;17.12;57.29;98682.75;10278816;28;20059;-73
2023/03/24 13:11:33;;;;;;;1.73;0.60;;;;;;;16.93;59.59;98674.59;10294573;28;20039;-72
2023/03/24 13:16:37;;;;;;;0.30;0.30;;;;;;;16.84;58.93;98668.19;10436615;28;20135;-74
2023/03/24 13:21:40;;;;;;;0.80;0.50;;;;;;;16.77;60.14;98676.75;10442646;28;20041;-73
2023/03/24 13:26:57;;;;;;;0.63;0.38;;;;;;;16.84;59.77;98667.34;10443594;28;20482;-73
2023/03/24 13:32:08;;;;;;;1.02;0.55;;;;;;;16.79;59.94;98659.75;10460126;28;20037;-74
2023/03/24 13:37:15;;;;;;;0.52;0.40;;;;;;;17.01;60.63;98663.38;10463699;28;20474;-72
2023/03/24 13:42:46;;;;;;;1.70;0.68;;;;;;;17.26;59.60;98654.25;10475909;28;20033;-73
2023/03/24 13:47:49;;;;;;;0.40;0.40;;;;;;;17.24;59.96;98656.19;10430989;28;20048;-73
2023/03/24 13:53:11;;;;;;;0.63;0.55;;;;;;;17.06;59.74;98646.09;10403203;28;20490;-72
2023/03/24 13:58:22;;;;;;;0.68;0.60;;;;;;;16.80;66.97;98711.84;10501140;28;20052;-73
2023/03/24 14:03:42;;;;;;;4.18;0.80;;;;;;;13.68;86.11;98772.94;10500431;28;20054;-72
2023/03/24 14:08:50;;;;;;;2.78;0.73;;;;;;;12.03;95.24;98812.84;10500995;28;20040;-72
2023/03/24 14:13:53;;;;;;;1.38;0.95;;;;;;;11.54;96.57;98807.66;10468172;28;20095;-73
2023/03/24 14:19:27;;;;;;;1.25;0.70;;;;;;;11.39;100.00;98812.00;10458629;28;20453;-73
2023/03/24 14:24:31;;;;;;;1.40;0.70;;;;;;;11.36;100.00;98823.53;10447840;28;20059;-73
2023/03/24 14:29:51;;;;;;;1.90;1.00;;;;;;;11.15;100.00;98827.31;10454570;28;20051;-72
2023/03/24 14:34:58;;;;;;;1.55;0.75;;;;;;;11.27;100.00;98826.66;10458477;28;20483;-73
2023/03/24 14:40:01;;;;;;;1.98;1.10;;;;;;;11.53;99.18;98821.78;10440497;28;20056;-73
2023/03/24 14:45:24;;;;;;;4.70;1.10;;;;;;;11.51;99.14;98821.88;10439988;28;20045;-73
2023/03/24 14:50:27;;;;;;;2.47;0.98;;;;;;;11.45;97.83;98830.06;10438601;28;20075;-73
2023/03/24 14:55:29;;;;;;;1.45;0.90;;;;;;;11.43;99.04;98834.59;10457287;28;20128;-72
2023/03/24 15:00:39;;;;;;;1.13;0.68;;;;;;;11.34;96.86;98832.44;10440726;28;20057;-73
2023/03/24 15:05:41;;;;;;;1.15;0.90;;;;;;;11.62;95.88;98830.00;10458895;28;20041;-73
2023/03/24 15:10:45;;;;;;;1.48;1.00;;;;;;;11.61;93.78;98835.34;10458063;28;20460;-73
2023/03/24 15:15:47;;;;;;;3.45;0.95;;;;;;;11.64;94.06;98819.38;10441902;28;20115;-73
2023/03/24 15:20:51;;;;;;;1.02;0.50;;;;;;;11.56;92.14;98827.72;10440295;28;20173;-74
2023/03/24 15:25:54;;;;;;;1.50;0.88;;;;;;;11.57;95.50;98810.97;10457946;28;20407;-73
2023/03/24 15:31:01;;;;;;;3.47;2.30;;;;;;;11.63;92.33;98820.31;10440665;28;20107;-72
2023/03/24 15:36:12;;;;;;;1.15;0.90;;;;;;;11.45;93.49;98787.97;10459596;28;20429;-73
2023/03/24 15:41:16;;;;;;;2.85;1.35;;;;;;;11.49;92.24;98794.75;10466391;28;20041;-73
2023/03/24 15:46:29;;;;;;;1.38;0.82;;;;;;;11.54;92.92;98750.63;10434015;28;20124;-73
2023/03/24 15:51:55;;;;;;;1.92;1.00;;;;;;;11.63;91.96;98763.25;10447432;28;20052;-73
2023/03/24 15:57:21;;;;;;;0.90;0.70;;;;;;;11.73;91.35;98762.72;10408127;28;20045;-73
2023/03/24 16:02:46;;;;;;;2.53;1.20;;;;;;;11.82;88.96;98767.47;10423740;28;20040;-73
2023/03/24 16:07:55;;;;;;;1.25;0.77;;;;;;;11.86;88.18;98756.75;10451246;22;20049;-72
2023/03/24 16:13:16;;;;;;;1.77;0.90;;;;;;;11.71;86.88;98751.47;10461992;28;20090;-70
2023/03/24 16:18:22;;;;;;;1.73;1.05;;;;;;;11.68;86.57;98764.78;10464173;28;20041;-71
2023/03/24 16:23:24;;;;;;;1.53;1.10;;;;;;;11.72;87.69;98763.69;10462016;28;20478;-71
2023/03/24 16:28:27;;;;;;;1.65;1.25;;;;;;;11.72;87.24;98775.06;10460703;28;20053;-71
2023/03/24 16:33:32;;;;;;;0.82;0.73;;;;;;;11.81;82.56;98769.25;10462245;28;20052;-71
2023/03/24 16:38:34;;;;;;;3.72;1.55;;;;;;;11.63;86.55;98778.19;10463492;28;20048;-71
2023/03/24 16:43:36;;;;;;;2.88;1.35;;;;;;;11.80;83.39;98772.84;10490214;28;20040;-71
2023/03/24 16:48:37;;;;;;;4.53;1.13;;;;;;;11.66;84.44;98785.94;10485004;28;20074;-71
2023/03/24 16:53:40;;;;;;;1.50;0.98;;;;;;;11.57;84.99;98784.66;10501878;28;20037;-71
2023/03/24 16:58:42;;;;;;;1.83;0.80;;;;;;;11.69;81.78;98759.44;10501852;28;20048;-70
2023/03/24 17:03:48;;;;;;;0.95;0.70;;;;;;;11.55;83.50;98757.59;10500293;28;20036;-70
2023/03/24 17:08:50;;;;;;;0.80;0.70;;;;;;;11.44;83.74;98765.22;10496724;28;20421;-70
2023/03/24 17:13:53;;;;;;;1.63;0.98;;;;;;;11.51;82.85;98779.75;10496160;28;20037;-71
2023/03/24 17:18:55;;;;;;;2.85;0.80;;;;;;;11.42;83.71;98789.91;10498441;28;20036;-71
2023/03/24 17:23:56;;;;;;;2.10;0.95;;;;;;;11.36;84.81;98789.31;10503014;28;20044;-71
2023/03/24 17:28:58;;;;;;;1.00;0.80;;;;;;;11.31;84.62;98785.25;10500592;28;20090;-74
2023/03/24 17:34:00;;;;;;;2.05;0.70;;;;;;;11.31;83.62;98787.88;10499874;28;20092;-71
2023/03/24 17:39:21;;;;;;;1.40;1.05;;;;;;;11.33;83.59;98788.63;10492604;28;20082;-72
2023/03/24 17:44:22;;;;;;;2.78;0.80;;;;;;;11.33;82.75;98807.94;10461275;28;20040;-71
2023/03/24 17:49:24;;;;;;;1.95;0.80;;;;;;;11.31;82.36;98795.78;10462721;28;20057;-72
2023/03/24 17:54:26;;;;;;;1.80;0.80;;;;;;;11.28;82.72;98794.16;10459542;28;20067;-72
2023/03/24 17:59:28;;;;;;;1.90;0.90;;;;;;;11.30;82.25;98808.09;10472869;28;20150;-72
2023/03/24 18:04:31;;;;;;;1.38;1.10;;;;;;;11.33;81.60;98818.44;10459086;28;20049;-72
2023/03/24 18:09:33;;;;;;;2.05;1.10;;;;;;;11.41;80.72;98827.69;10493687;28;20071;-71
2023/03/24 18:14:35;;;;;;;1.65;1.10;;;;;;;11.33;80.77;98836.88;10481523;28;20044;-71
2023/03/24 18:19:37;;;;;;;2.95;1.45;;;;;;;11.26;81.36;98832.00;10499829;28;20063;-71
2023/03/24 18:24:39;;;;;;;1.60;0.95;;;;;;;11.24;80.87;98837.34;10481218;28;20033;-71
2023/03/24 18:29:40;;;;;;;1.52;1.00;;;;;;;11.14;81.30;98836.13;10459665;28;20053;-71
2023/03/24 18:34:43;;;;;;;2.30;1.63;;;;;;;11.11;79.64;98842.44;10456837;28;20041;-71
2023/03/24 18:39:45;;;;;;;1.52;1.20;;;;;;;11.19;78.21;98843.78;10457874;28;20059;-70
2023/03/24 18:44:47;;;;;;;1.88;0.93;;;;;;;11.11;77.88;98845.06;10456573;28;20041;-72
2023/03/24 18:49:48;;;;;;;2.40;0.90;;;;;;;11.20;77.03;98851.59;10439536;28;20103;-71
2023/03/24 18:54:52;;;;;;;4.78;1.10;;;;;;;11.09;78.13;98844.28;10439018;28;20037;-70
2023/03/24 18:59:54;;;;;;;3.08;1.20;;;;;;;11.06;77.75;98843.56;10457271;28;20047;-71
2023/03/24 19:04:55;;;;;;;2.35;1.20;;;;;;;11.05;78.26;98852.41;10438722;28;20095;-71
2023/03/24 19:09:58;;;;;;;2.38;1.40;;;;;;;11.08;78.90;98868.88;10456019;28;20045;-71
2023/03/24 19:15:00;;;;;;;1.70;1.60;;;;;;;10.85;81.28;98862.19;10465208;28;20064;-71
2023/03/24 19:20:03;;;;;;;1.58;1.40;;;;;;;10.79;81.68;98867.75;10463848;28;20513;-74
2023/03/24 19:25:07;;;;;;;2.55;1.40;;;;;;;10.68;82.09;98867.44;10446264;28;20045;-71
2023/03/24 19:30:09;;;;;;;2.60;1.30;;;;;;;10.76;81.83;98862.66;10463640;28;20367;-71
2023/03/24 19:35:12;;;;;;;2.90;1.20;;;;;;;10.50;83.14;98879.75;10465159;28;20095;-71
2023/03/24 19:40:14;;;;;;;2.67;1.50;;;;;;;10.51;83.03;98877.97;10461865;28;20053;-70
2023/03/24 19:45:16;;;;;;;4.38;1.08;;;;;;;10.52;81.75;98879.66;10464111;28;20045;-71
2023/03/24 19:50:18;;;;;;;7.32;1.67;;;;;;;10.56;80.16;98873.31;10463635;28;20044;-71
2023/03/24 19:55:20;;;;;;;3.00;1.70;;;;;;;10.53;79.76;98878.72;10464277;28;20060;-72
2023/03/24 20:00:22;;;;;;;3.35;1.23;;;;;;;10.44;79.89;98876.56;10463414;28;20044;-70
2023/03/24 20:05:24;;;;;;;3.60;1.35;;;;;;;10.47;79.00;98879.88;10464802;28;20352;-72
2023/03/24 20:10:26;;;;;;;2.95;1.20;;;;;;;10.44;78.47;98877.41;10464387;28;20502;-72
2023/03/24 20:15:28;;;;;;;2.55;1.00;;;;;;;10.44;78.24;98871.28;10463143;28;20551;-70
2023/03/24 20:20:30;;;;;;;2.70;1.30;;;;;;;10.38;78.42;98877.72;10466769;28;20037;-71
2023/03/24 20:25:32;;;;;;;3.00;1.30;;;;;;;10.13;80.96;98878.00;10462294;28;20112;-72
2023/03/24 20:30:34;;;;;;;2.97;1.17;;;;;;;10.10;80.91;98884.28;10461898;28;20041;-72
2023/03/24 20:35:36;;;;;;;3.33;1.30;;;;;;;10.05;80.83;98888.91;10464013;28;20049;-72
2023/03/24 20:40:37;;;;;;;3.08;1.60;;;;;;;9.95;82.38;98900.75;10462657;28;20052;-72
2023/03/24 20:45:39;;;;;;;2.60;1.20;;;;;;;10.01;81.58;98910.13;10461497;28;20075;-71
2023/03/24 20:50:42;;;;;;;1.75;1.10;;;;;;;9.95;82.50;98892.88;10461934;28;20048;-73
2023/03/24 20:55:47;;;;;;;2.13;0.90;;;;;;;10.00;82.08;98896.13;10461355;28;20041;-71
2023/03/24 21:00:50;;;;;;;2.30;1.20;;;;;;;10.00;81.94;98888.25;10462464;28;20047;-72
2023/03/24 21:05:52;;;;;;;5.47;1.17;;;;;;;10.19;80.93;98895.28;10462650;28;20045;-71
2023/03/24 21:10:57;;;;;;;2.67;1.10;;;;;;;10.09;81.88;98903.59;10460711;28;20459;-73
2023/03/24 21:16:00;;;;;;;1.70;1.00;;;;;;;10.08;81.28;98901.88;10461378;28;20045;-73
2023/03/24 21:21:02;;;;;;;1.70;1.10;;;;;;;10.11;80.97;98899.09;10460479;28;20426;-71
2023/03/24 21:26:07;;;;;;;1.63;1.00;;;;;;;10.15;81.01;98901.59;10461129;28;20065;-71
2023/03/24 21:31:29;;;;;;;10.27;1.63;;;;;;;10.19;80.18;98898.75;10460143;28;20548;-72
2023/03/24 21:36:31;;;;;;;4.32;1.35;;;;;;;9.97;81.40;98892.81;10457577;28;20052;-71
2023/03/24 21:41:33;;;;;;;3.40;1.13;;;;;;;10.08;80.75;98875.63;10462147;28;20047;-71
2023/03/24 21:46:35;;;;;;;2.15;1.00;;;;;;;10.08;80.39;98882.66;10461074;28;20414;-70
2023/03/24 21:51:37;;;;;;;2.15;0.90;;;;;;;10.26;79.37;98881.78;10460458;28;20056;-71
2023/03/24 21:56:39;;;;;;;2.55;1.00;;;;;;;9.99;81.08;98886.56;10459169;28;20386;-71
2023/03/24 22:01:41;;;;;;;4.20;1.10;;;;;;;9.99;81.85;98893.59;10459000;28;20057;-72
2023/03/24 22:06:43;;;;;;;2.75;1.10;;;;;;;9.88;82.41;98904.59;10497099;22;20044;-78
2023/03/24 22:11:45;;;;;;;2.88;1.23;;;;;;;10.09;81.27;98916.72;10532771;28;20059;-79
2023/03/24 22:16:47;;;;;;;2.60;1.10;;;;;;;10.17;80.96;98913.72;10534736;28;20051;-79
2023/03/24 22:21:59;;;;;;;2.83;1.08;;;;;;;10.34;79.66;98908.53;10550548;28;20044;-78
2023/03/24 22:27:01;;;;;;;1.38;0.90;;;;;;;10.50;78.76;98906.00;10550147;28;20067;-79
2023/03/24 22:32:02;;;;;;;2.40;0.82;;;;;;;10.66;78.27;98902.59;10552170;28;20097;-78
2023/03/24 22:37:04;;;;;;;3.35;1.23;;;;;;;10.90;76.70;98911.91;10548652;28;20033;-78
2023/03/24 22:42:07;;;;;;;2.30;0.98;;;;;;;10.86;78.07;98899.84;10529408;28;20139;-79
2023/03/24 22:47:10;;;;;;;3.10;1.30;;;;;;;11.01;77.26;98893.78;10549801;28;20485;-79
2023/03/24 22:52:12;;;;;;;2.88;0.90;;;;;;;11.26;75.68;98890.72;10550068;28;20485;-78
2023/03/24 22:57:13;;;;;;;2.05;0.93;;;;;;;11.43;73.93;98895.09;10532314;28;20492;-79
2023/03/24 23:02:16;;;;;;;2.60;0.93;;;;;;;11.43;74.55;98891.63;10550444;28;20063;-77
2023/03/24 23:07:18;;;;;;;1.80;0.90;;;;;;;11.39;72.84;98890.09;10532451;28;20067;-77
2023/03/24 23:12:21;;;;;;;2.38;1.08;;;;;;;11.37;72.67;98891.00;10531037;28;20079;-78
2023/03/24 23:17:22;;;;;;;2.28;1.00;;;;;;;11.32;72.93;98897.44;10529353;28;20190;-79
2023/03/24 23:22:25;;;;;;;2.35;1.20;;;;;;;11.24;73.39;98899.63;10530977;28;20051;-78
2023/03/24 23:27:26;;;;;;;2.53;1.00;;;;;;;11.28;72.64;98890.63;10545825;28;20131;-78
2023/03/24 23:32:31;;;;;;;2.55;1.02;;;;;;;11.20;72.79;98898.97;10548836;28;20040;-78
2023/03/24 23:37:37;;;;;;;3.60;1.42;;;;;;;11.19;72.92;98901.66;10550206;28;20412;-79
2023/03/24 23:42:41;;;;;;;2.67;0.95;;;;;;;10.98;74.14;98901.84;10549782;28;20442;-78
2023/03/24 23:47:46;;;;;;;3.22;1.13;;;;;;;10.91;74.20;98899.59;10546053;28;20056;-79
2023/03/24 23:52:50;;;;;;;2.65;1.00;;;;;;;10.94;73.70;98902.94;10547213;28;20055;-79